createdAt,value
2023-02-16T00:00:40.354Z,7.32
2023-02-16T00:03:21.498Z,7.33
2023-02-16T00:05:50.744Z,7.28
2023-02-16T00:08:18.731Z,7.31
2023-02-16T00:11:07.386Z,7.16
2023-02-16T00:13:44.990Z,7.17
2023-02-16T00:16:21.986Z,7.27
2023-02-16T00:18:50.903Z,7.27
2023-02-16T00:21:19.032Z,7.31
2023-02-16T00:23:48.565Z,7.28
2023-02-16T00:26:20.651Z,7.26
2023-02-16T00:28:54.586Z,7.23
2023-02-16T00:31:24.036Z,7.09
2023-02-16T00:33:52.200Z,7.07
2023-02-16T00:36:24.253Z,7.06
2023-02-16T00:38:53.059Z,7.03
2023-02-16T00:41:41.981Z,7.10
2023-02-16T00:44:24.468Z,7.15
2023-02-16T00:46:52.234Z,7.20
2023-02-16T00:49:22.001Z,7.09
2023-02-16T00:51:50.541Z,7.08
2023-02-16T00:54:18.453Z,7.00
2023-02-16T00:56:47.103Z,7.03
2023-02-16T00:59:20.310Z,6.94
2023-02-16T01:01:49.269Z,6.94
2023-02-16T01:04:23.393Z,6.98
2023-02-16T01:07:10.199Z,6.91
2023-02-16T01:09:57.050Z,7.02
2023-02-16T01:12:24.598Z,7.07
2023-02-16T01:14:54.187Z,7.06
2023-02-16T01:17:25.258Z,6.85
2023-02-16T01:19:55.052Z,6.92
2023-02-16T01:22:22.582Z,6.90
2023-02-16T01:24:50.094Z,6.74
2023-02-16T01:27:19.263Z,6.61
2023-02-16T01:29:46.906Z,6.66
2023-02-16T01:32:16.872Z,6.67
2023-02-16T01:34:44.960Z,6.65
2023-02-16T01:37:15.814Z,6.67
2023-02-16T01:39:45.211Z,6.64
2023-02-16T01:42:30.161Z,6.47
2023-02-16T01:45:05.017Z,6.57
2023-02-16T01:47:51.962Z,6.67
2023-02-16T01:50:26.333Z,6.60
2023-02-16T01:53:06.720Z,6.57
2023-02-16T01:55:42.584Z,6.60
2023-02-16T01:58:19.388Z,6.55
2023-02-16T02:00:50.033Z,6.55
2023-02-16T02:03:53.171Z,6.47
2023-02-16T02:06:33.911Z,6.57
2023-02-16T02:09:22.879Z,6.57
2023-02-16T02:12:06.539Z,6.48
2023-02-16T02:14:38.603Z,6.42
2023-02-16T02:17:14.058Z,6.42
2023-02-16T02:19:46.517Z,6.47
2023-02-16T02:22:51.339Z,6.42
2023-02-16T02:25:25.531Z,6.49
2023-02-16T02:28:11.012Z,6.41
2023-02-16T02:30:59.394Z,6.25
2023-02-16T02:33:52.030Z,6.20
2023-02-16T02:36:27.998Z,6.16
2023-02-16T02:39:25.307Z,6.18
2023-02-16T02:42:04.736Z,6.08
2023-02-16T02:45:02.792Z,6.11
2023-02-16T02:47:57.469Z,6.11
2023-02-16T02:50:39.539Z,6.05
2023-02-16T02:53:16.343Z,6.12
2023-02-16T02:56:08.192Z,6.19
2023-02-16T02:58:56.470Z,6.07
2023-02-16T03:01:25.552Z,6.11
2023-02-16T03:03:57.539Z,6.11
2023-02-16T03:06:32.809Z,5.81
2023-02-16T03:09:06.261Z,5.82
2023-02-16T03:11:53.315Z,5.80
2023-02-16T03:14:30.305Z,5.74
2023-02-16T03:17:20.384Z,5.66
2023-02-16T03:20:08.833Z,5.58
2023-02-16T03:22:57.179Z,5.70
2023-02-16T03:25:47.953Z,5.72
2023-02-16T03:28:38.101Z,5.86
2023-02-16T03:31:08.545Z,5.72
2023-02-16T03:33:36.771Z,5.60
2023-02-16T03:36:05.417Z,5.67
2023-02-16T03:38:34.488Z,5.66
2023-02-16T03:41:02.417Z,5.69
2023-02-16T03:43:30.772Z,5.71
2023-02-16T03:45:58.827Z,5.80
2023-02-16T03:48:26.930Z,5.74
2023-02-16T03:50:54.627Z,5.79
2023-02-16T03:53:23.054Z,5.86
2023-02-16T03:55:51.021Z,5.76
2023-02-16T03:58:21.285Z,5.73
2023-02-16T04:00:51.167Z,5.72
2023-02-16T04:03:19.296Z,5.62
2023-02-16T04:05:47.920Z,5.70
2023-02-16T04:08:16.052Z,5.75
2023-02-16T04:10:44.223Z,5.69
2023-02-16T04:13:11.743Z,5.60
2023-02-16T04:15:40.120Z,5.60
2023-02-16T04:18:08.020Z,5.45
2023-02-16T04:20:35.789Z,5.36
2023-02-16T04:23:04.020Z,5.36
2023-02-16T04:25:32.268Z,5.32
2023-02-16T04:28:00.612Z,5.37
2023-02-16T04:30:30.477Z,5.42
2023-02-16T04:32:59.370Z,5.48
2023-02-16T04:35:28.089Z,5.52
2023-02-16T04:37:56.621Z,5.50
2023-02-16T04:40:24.116Z,5.52
2023-02-16T04:42:51.982Z,5.50
2023-02-16T04:45:20.084Z,5.46
2023-02-16T04:47:48.764Z,5.40
2023-02-16T04:50:17.289Z,5.38
2023-02-16T04:52:45.039Z,5.25
2023-02-16T04:55:13.317Z,5.28
2023-02-16T04:57:41.361Z,5.35
2023-02-16T05:00:12.094Z,5.33
2023-02-16T05:02:39.885Z,5.31
2023-02-16T05:05:08.259Z,5.18
2023-02-16T05:07:36.996Z,5.04
2023-02-16T05:10:05.857Z,5.06
2023-02-16T05:12:52.728Z,5.10
2023-02-16T05:15:21.363Z,5.28
2023-02-16T05:17:49.263Z,5.20
2023-02-16T05:20:17.006Z,5.13
2023-02-16T05:22:46.298Z,5.16
2023-02-16T05:25:14.930Z,5.23
2023-02-16T05:27:43.165Z,5.23
2023-02-16T05:30:11.683Z,5.36
2023-02-16T05:32:39.260Z,5.31
2023-02-16T05:35:07.298Z,5.24
2023-02-16T05:37:35.802Z,5.37
2023-02-16T05:40:03.634Z,5.36
2023-02-16T05:42:32.096Z,5.33
2023-02-16T05:45:00.434Z,5.30
2023-02-16T05:47:28.112Z,5.33
2023-02-16T05:49:56.172Z,5.32
2023-02-16T05:52:23.764Z,5.27
2023-02-16T05:54:51.310Z,5.28
2023-02-16T05:57:18.945Z,5.37
2023-02-16T05:59:46.513Z,5.38
2023-02-16T06:02:14.047Z,5.39
2023-02-16T06:04:42.053Z,5.36
2023-02-16T06:07:09.974Z,5.39
2023-02-16T06:09:37.440Z,5.43
2023-02-16T06:12:05.390Z,5.35
2023-02-16T06:14:33.442Z,5.35
2023-02-16T06:17:01.524Z,5.35
2023-02-16T06:19:29.231Z,5.28
2023-02-16T06:21:56.689Z,5.36
2023-02-16T06:24:24.331Z,5.49
2023-02-16T06:26:51.830Z,5.48
2023-02-16T06:29:19.334Z,5.44
2023-02-16T06:31:47.127Z,5.49
2023-02-16T06:34:15.636Z,5.57
2023-02-16T06:36:44.135Z,5.62
2023-02-16T06:39:11.756Z,5.70
2023-02-16T06:41:40.220Z,5.82
2023-02-16T06:44:12.483Z,5.90
2023-02-16T06:46:42.652Z,6.03
2023-02-16T06:49:18.025Z,5.96
2023-02-16T06:51:46.228Z,5.94
2023-02-16T06:54:15.266Z,6.10
2023-02-16T06:56:43.897Z,6.32
2023-02-16T06:59:12.658Z,6.57
2023-02-16T07:01:42.926Z,6.69
2023-02-16T07:04:12.056Z,6.87
2023-02-16T07:06:40.181Z,6.97
2023-02-16T07:09:07.657Z,7.01
2023-02-16T07:11:35.848Z,7.08
2023-02-16T07:14:03.519Z,7.33
2023-02-16T07:16:31.573Z,7.32
2023-02-16T07:19:00.316Z,7.38
2023-02-16T07:21:28.592Z,7.48
2023-02-16T07:23:56.236Z,7.59
2023-02-16T07:26:24.032Z,7.59
2023-02-16T07:28:52.528Z,7.80
2023-02-16T07:31:20.284Z,7.91
2023-02-16T07:33:47.850Z,8.11
2023-02-16T07:36:16.278Z,8.24
2023-02-16T07:38:44.536Z,8.36
2023-02-16T07:41:12.976Z,8.48
2023-02-16T07:43:43.084Z,8.25
2023-02-16T07:46:11.276Z,8.45
2023-02-16T07:48:38.892Z,8.39
2023-02-16T07:51:06.995Z,8.54
2023-02-16T07:53:35.211Z,8.49
2023-02-16T07:56:02.848Z,8.35
2023-02-16T07:58:31.253Z,8.32
2023-02-16T08:01:08.793Z,8.59
2023-02-16T08:03:36.920Z,8.75
2023-02-16T08:06:06.307Z,8.88
2023-02-16T08:08:33.897Z,8.83
2023-02-16T08:11:15.303Z,9.18
2023-02-16T08:13:44.366Z,9.24
2023-02-16T08:16:18.692Z,9.42
2023-02-16T08:18:46.630Z,9.79
2023-02-16T08:21:17.834Z,9.85
2023-02-16T08:23:54.559Z,10.15
2023-02-16T08:26:23.529Z,10.34
2023-02-16T08:28:52.701Z,10.70
2023-02-16T08:31:25.541Z,10.44
2023-02-16T08:33:54.987Z,10.83
2023-02-16T08:36:38.676Z,10.78
2023-02-16T08:39:15.040Z,11.05
2023-02-16T08:41:44.102Z,11.23
2023-02-16T08:44:13.805Z,10.03
2023-02-16T08:46:44.448Z,9.70
2023-02-16T08:49:12.835Z,9.90
2023-02-16T08:51:48.283Z,10.10
2023-02-16T08:54:19.771Z,10.22
2023-02-16T08:56:49.641Z,9.97
2023-02-16T08:59:19.935Z,9.76
2023-02-16T09:01:48.367Z,9.86
2023-02-16T09:04:19.135Z,10.04
2023-02-16T09:06:48.763Z,10.52
2023-02-16T09:09:16.870Z,10.66
2023-02-16T09:11:46.018Z,10.70
2023-02-16T09:14:15.533Z,10.47
2023-02-16T09:16:45.881Z,10.95
2023-02-16T09:19:16.137Z,10.91
2023-02-16T09:21:45.220Z,10.98
2023-02-16T09:24:13.626Z,10.90
2023-02-16T09:26:43.048Z,12.09
2023-02-16T09:29:12.561Z,12.44
2023-02-16T09:31:42.579Z,11.99
2023-02-16T09:34:22.658Z,12.47
2023-02-16T09:36:51.325Z,12.53
2023-02-16T09:39:19.296Z,13.07
2023-02-16T09:42:05.410Z,13.77
2023-02-16T09:44:49.420Z,13.78
2023-02-16T09:47:22.263Z,14.52
2023-02-16T09:49:51.568Z,14.75
2023-02-16T09:52:20.023Z,12.90
2023-02-16T09:54:52.149Z,14.43
2023-02-16T09:57:47.124Z,15.41
2023-02-16T10:00:38.193Z,15.40
2023-02-16T10:03:43.364Z,16.15
2023-02-16T10:06:31.097Z,16.26
2023-02-16T10:09:06.274Z,16.99
2023-02-16T10:11:50.293Z,16.71
2023-02-16T10:14:32.655Z,17.06
2023-02-16T10:17:28.450Z,17.64
2023-02-16T10:20:02.226Z,16.97
2023-02-16T10:22:40.718Z,15.40
2023-02-16T10:25:14.552Z,14.81
2023-02-16T10:27:44.099Z,15.11
2023-02-16T10:30:15.359Z,15.49
2023-02-16T10:33:15.692Z,15.57
2023-02-16T10:35:48.097Z,15.79
2023-02-16T10:38:29.919Z,16.54
2023-02-16T10:41:16.476Z,17.30
2023-02-16T10:43:53.157Z,16.23
2023-02-16T10:46:30.989Z,15.84
2023-02-16T10:49:02.103Z,18.03
2023-02-16T10:51:37.441Z,18.47
2023-02-16T10:54:10.505Z,17.75
2023-02-16T10:57:13.305Z,17.09
2023-02-16T10:59:47.016Z,16.44
2023-02-16T11:02:31.223Z,16.93
2023-02-16T11:05:00.822Z,16.39
2023-02-16T11:07:31.575Z,16.33
2023-02-16T11:10:18.894Z,16.87
2023-02-16T11:12:57.933Z,16.49
2023-02-16T11:15:27.682Z,17.17
2023-02-16T11:18:08.085Z,17.11
2023-02-16T11:20:45.072Z,17.11
2023-02-16T11:23:26.997Z,16.04
2023-02-16T11:25:59.179Z,16.58
2023-02-16T11:28:33.089Z,17.68
2023-02-16T11:31:23.196Z,16.98
2023-02-16T11:34:06.499Z,17.20
2023-02-16T11:36:40.512Z,17.83
2023-02-16T11:39:18.182Z,18.35
2023-02-16T11:41:52.868Z,18.67
2023-02-16T11:44:29.974Z,16.99
2023-02-16T11:46:59.847Z,17.48
2023-02-16T11:49:27.387Z,17.93
2023-02-16T11:51:55.801Z,17.43
2023-02-16T11:54:23.775Z,16.70
2023-02-16T11:57:25.136Z,18.61
2023-02-16T11:59:53.718Z,18.31
2023-02-16T12:02:50.636Z,18.74
2023-02-16T12:05:35.730Z,19.46
2023-02-16T12:08:25.506Z,20.52
2023-02-16T12:11:28.226Z,20.26
2023-02-16T12:14:22.420Z,19.24
2023-02-16T12:17:06.716Z,19.77
2023-02-16T12:19:44.376Z,19.93
2023-02-16T12:22:14.626Z,19.96
2023-02-16T12:25:07.889Z,20.69
2023-02-16T12:27:39.263Z,21.26
2023-02-16T12:30:26.485Z,20.42
2023-02-16T12:33:20.942Z,19.89
2023-02-16T12:35:57.344Z,20.74
2023-02-16T12:38:52.104Z,20.35
2023-02-16T12:41:35.516Z,20.39
2023-02-16T12:44:13.075Z,20.20
2023-02-16T12:46:51.986Z,20.97
2023-02-16T12:49:36.095Z,21.42
2023-02-16T12:52:11.229Z,19.49
2023-02-16T12:54:46.577Z,20.39
2023-02-16T12:57:17.913Z,21.05
2023-02-16T12:59:55.518Z,21.20
2023-02-16T13:02:35.996Z,21.31
2023-02-16T13:05:29.929Z,20.87
2023-02-16T13:08:07.261Z,19.58
2023-02-16T13:10:57.934Z,20.71
2023-02-16T13:13:31.950Z,18.97
2023-02-16T13:16:29.994Z,20.41
2023-02-16T13:18:58.997Z,19.45
2023-02-16T13:21:26.965Z,19.63
2023-02-16T13:24:05.296Z,20.69
2023-02-16T13:26:41.809Z,19.88
2023-02-16T13:29:40.149Z,20.67
2023-02-16T13:32:28.495Z,20.52
2023-02-16T13:35:02.864Z,20.12
2023-02-16T13:37:45.844Z,20.09
2023-02-16T13:40:44.021Z,20.25
2023-02-16T13:43:33.341Z,21.79
2023-02-16T13:46:08.354Z,22.41
2023-02-16T13:48:46.851Z,22.24
2023-02-16T13:51:23.796Z,21.48
2023-02-16T13:53:57.028Z,20.93
2023-02-16T13:56:31.055Z,20.97
2023-02-16T13:59:17.389Z,21.19
2023-02-16T14:01:47.965Z,20.10
2023-02-16T14:04:22.196Z,21.67
2023-02-16T14:07:15.182Z,22.03
2023-02-16T14:09:50.820Z,24.15
2023-02-16T14:12:22.880Z,24.75
2023-02-16T14:14:53.291Z,24.97
2023-02-16T14:17:23.928Z,23.88
2023-02-16T14:20:02.558Z,22.37
2023-02-16T14:22:45.822Z,23.20
2023-02-16T14:25:22.662Z,22.79
2023-02-16T14:27:53.372Z,22.10
2023-02-16T14:30:39.476Z,23.20
2023-02-16T14:33:34.662Z,24.19
2023-02-16T14:36:02.134Z,24.28
2023-02-16T14:38:35.587Z,23.73
2023-02-16T14:41:08.781Z,23.51
2023-02-16T14:43:49.967Z,23.35
2023-02-16T14:46:48.350Z,24.27
2023-02-16T14:49:55.255Z,24.78
2023-02-16T14:52:44.606Z,24.90
2023-02-16T14:55:54.951Z,23.90
2023-02-16T14:58:48.100Z,24.05
2023-02-16T15:01:18.848Z,23.92
2023-02-16T15:03:58.114Z,23.62
2023-02-16T15:06:36.548Z,22.71
2023-02-16T15:09:16.946Z,22.28
2023-02-16T15:12:14.135Z,21.83
2023-02-16T15:14:46.573Z,20.29
2023-02-16T15:17:20.807Z,19.32
2023-02-16T15:19:48.532Z,19.61
2023-02-16T15:22:22.714Z,18.98
2023-02-16T15:24:56.188Z,19.90
2023-02-16T15:27:25.991Z,20.37
2023-02-16T15:30:21.646Z,20.80
2023-02-16T15:32:56.377Z,20.02
2023-02-16T15:35:31.974Z,18.50
2023-02-16T15:38:02.307Z,17.69
2023-02-16T15:40:31.920Z,16.71
2023-02-16T15:43:07.883Z,16.54
2023-02-16T15:45:38.136Z,16.45
2023-02-16T15:48:22.140Z,16.12
2023-02-16T15:50:53.545Z,15.43
2023-02-16T15:53:48.711Z,15.59
2023-02-16T15:56:37.385Z,15.41
2023-02-16T15:59:26.395Z,15.01
2023-02-16T16:02:00.870Z,15.02
2023-02-16T16:04:31.755Z,14.84
2023-02-16T16:07:00.371Z,14.70
2023-02-16T16:09:30.810Z,14.53
2023-02-16T16:12:01.638Z,14.46
2023-02-16T16:14:31.343Z,14.23
2023-02-16T16:16:59.297Z,14.02
2023-02-16T16:19:36.411Z,13.97
2023-02-16T16:22:29.174Z,13.83
2023-02-16T16:24:57.902Z,13.54
2023-02-16T16:27:36.750Z,13.40
2023-02-16T16:30:21.125Z,13.28
2023-02-16T16:33:02.819Z,13.23
2023-02-16T16:35:43.234Z,13.12
2023-02-16T16:38:29.363Z,13.07
2023-02-16T16:41:03.656Z,13.00
2023-02-16T16:43:51.745Z,12.90
2023-02-16T16:46:24.591Z,12.84
2023-02-16T16:49:03.519Z,12.81
2023-02-16T16:51:31.747Z,12.69
2023-02-16T16:54:04.177Z,12.50
2023-02-16T16:56:38.210Z,12.44
2023-02-16T16:59:06.635Z,12.33
2023-02-16T17:01:35.113Z,12.18
2023-02-16T17:04:02.995Z,12.00
2023-02-16T17:06:31.445Z,11.86
2023-02-16T17:08:58.991Z,11.75
2023-02-16T17:11:31.820Z,11.68
2023-02-16T17:14:10.372Z,11.58
2023-02-16T17:16:43.285Z,11.52
2023-02-16T17:19:14.309Z,11.47
2023-02-16T17:21:42.652Z,11.46
2023-02-16T17:24:10.706Z,11.51
2023-02-16T17:26:39.778Z,11.55
2023-02-16T17:29:08.386Z,11.57
2023-02-16T17:31:36.415Z,11.53
2023-02-16T17:34:04.880Z,11.50
2023-02-16T17:36:32.691Z,11.29
2023-02-16T17:39:00.298Z,11.14
2023-02-16T17:41:30.059Z,11.06
2023-02-16T17:43:58.716Z,10.97
2023-02-16T17:46:28.368Z,10.91
2023-02-16T17:48:56.718Z,10.83
2023-02-16T17:51:26.881Z,10.84
2023-02-16T17:53:55.678Z,10.84
2023-02-16T17:56:25.493Z,10.74
2023-02-16T17:58:53.461Z,10.68
2023-02-16T18:01:21.423Z,10.59
2023-02-16T18:03:49.641Z,10.59
2023-02-16T18:06:19.661Z,10.51
2023-02-16T18:08:47.922Z,10.51
2023-02-16T18:11:16.921Z,10.57
2023-02-16T18:13:45.223Z,10.43
2023-02-16T18:16:21.876Z,10.34
2023-02-16T18:18:50.269Z,10.31
2023-02-16T18:21:18.185Z,10.36
2023-02-16T18:23:46.731Z,10.33
2023-02-16T18:26:16.937Z,10.33
2023-02-16T18:28:45.400Z,10.13
2023-02-16T18:31:14.813Z,10.14
2023-02-16T18:33:43.045Z,10.16
2023-02-16T18:36:11.369Z,10.03
2023-02-16T18:38:39.881Z,9.91
2023-02-16T18:41:08.311Z,9.98
2023-02-16T18:43:37.322Z,10.03
2023-02-16T18:46:09.421Z,10.08
2023-02-16T18:48:37.656Z,10.05
2023-02-16T18:51:10.594Z,10.17
2023-02-16T18:53:39.387Z,9.97
2023-02-16T18:56:09.577Z,9.99
2023-02-16T18:58:37.300Z,9.97
2023-02-16T19:01:17.367Z,9.87
2023-02-16T19:03:45.522Z,9.86
2023-02-16T19:06:13.182Z,9.77
2023-02-16T19:08:41.174Z,9.68
2023-02-16T19:11:09.385Z,9.61
2023-02-16T19:13:37.696Z,9.67
2023-02-16T19:16:06.082Z,9.60
2023-02-16T19:18:34.353Z,9.56
2023-02-16T19:21:14.269Z,9.54
2023-02-16T19:23:42.401Z,9.41
2023-02-16T19:26:13.647Z,9.40
2023-02-16T19:28:43.181Z,9.38
2023-02-16T19:31:22.309Z,9.42
2023-02-16T19:33:50.456Z,9.41
2023-02-16T19:36:19.596Z,9.41
2023-02-16T19:38:49.118Z,9.33
2023-02-16T19:41:23.020Z,9.28
2023-02-16T19:43:52.312Z,9.27
2023-02-16T19:46:21.145Z,9.34
2023-02-16T19:48:49.328Z,9.31
2023-02-16T19:51:16.945Z,9.15
2023-02-16T19:53:45.605Z,9.15
2023-02-16T19:56:17.493Z,9.19
2023-02-16T19:58:47.035Z,9.15
2023-02-16T20:01:20.973Z,9.01
2023-02-16T20:03:51.112Z,8.97
2023-02-16T20:06:23.436Z,8.95
2023-02-16T20:08:52.788Z,9.04
2023-02-16T20:11:23.036Z,9.03
2023-02-16T20:13:50.816Z,8.99
2023-02-16T20:16:20.387Z,8.99
2023-02-16T20:18:50.152Z,8.91
2023-02-16T20:21:20.769Z,8.83
2023-02-16T20:23:53.712Z,8.81
2023-02-16T20:26:34.450Z,8.87
2023-02-16T20:29:04.090Z,8.91
2023-02-16T20:31:38.592Z,8.87
2023-02-16T20:34:08.483Z,8.73
2023-02-16T20:36:38.069Z,8.60
2023-02-16T20:39:07.669Z,8.64
2023-02-16T20:41:36.124Z,8.51
2023-02-16T20:44:05.025Z,8.44
2023-02-16T20:46:32.938Z,8.47
2023-02-16T20:49:01.390Z,8.57
2023-02-16T20:51:29.277Z,8.68
2023-02-16T20:54:00.407Z,8.70
2023-02-16T20:56:29.039Z,8.76
2023-02-16T20:58:58.738Z,8.67
2023-02-16T21:01:30.974Z,8.62
2023-02-16T21:04:00.645Z,8.58
2023-02-16T21:06:29.250Z,8.70
2023-02-16T21:08:57.449Z,8.62
2023-02-16T21:11:27.382Z,8.56
2023-02-16T21:13:55.527Z,8.37
2023-02-16T21:16:23.965Z,8.40
2023-02-16T21:18:52.205Z,8.47
2023-02-16T21:21:21.468Z,8.49
2023-02-16T21:23:52.270Z,8.44
2023-02-16T21:26:22.397Z,8.30
2023-02-16T21:28:50.052Z,8.37
2023-02-16T21:31:22.679Z,8.15
2023-02-16T21:33:51.362Z,8.16
2023-02-16T21:36:24.876Z,8.07
2023-02-16T21:38:53.170Z,8.03
2023-02-16T21:41:24.664Z,7.94
2023-02-16T21:43:55.696Z,7.91
2023-02-16T21:46:23.745Z,8.02
2023-02-16T21:48:52.035Z,8.00
2023-02-16T21:51:24.383Z,7.99
2023-02-16T21:53:56.160Z,8.07
2023-02-16T21:56:42.285Z,8.09
2023-02-16T21:59:13.306Z,8.18
2023-02-16T22:01:43.479Z,8.12
2023-02-16T22:04:14.272Z,8.15
2023-02-16T22:06:45.035Z,8.06
2023-02-16T22:09:22.293Z,8.08
2023-02-16T22:11:50.761Z,8.03
2023-02-16T22:14:19.507Z,8.04
2023-02-16T22:16:48.826Z,8.06
2023-02-16T22:19:18.478Z,8.21
2023-02-16T22:21:47.564Z,8.26
2023-02-16T22:24:17.842Z,8.14
2023-02-16T22:26:47.913Z,8.07
2023-02-16T22:29:16.682Z,8.03
2023-02-16T22:31:48.990Z,7.86
2023-02-16T22:34:21.081Z,7.82
2023-02-16T22:36:49.954Z,7.92
2023-02-16T22:39:19.251Z,7.95
2023-02-16T22:41:50.011Z,8.00
2023-02-16T22:44:18.036Z,8.09
2023-02-16T22:46:46.086Z,8.01
2023-02-16T22:49:15.031Z,7.94
2023-02-16T22:51:42.916Z,7.84
2023-02-16T22:54:14.437Z,7.86
2023-02-16T22:56:42.573Z,7.98
2023-02-16T22:59:11.470Z,7.92
2023-02-16T23:01:40.011Z,7.92
2023-02-16T23:04:12.410Z,8.00
2023-02-16T23:06:40.381Z,8.07
2023-02-16T23:09:14.287Z,7.98
2023-02-16T23:11:41.871Z,8.01
2023-02-16T23:14:16.526Z,7.79
2023-02-16T23:16:46.438Z,7.76
2023-02-16T23:19:18.911Z,7.77
2023-02-16T23:21:47.399Z,7.90
2023-02-16T23:24:19.264Z,7.85
2023-02-16T23:26:48.134Z,7.90
2023-02-16T23:29:16.255Z,7.88
2023-02-16T23:31:46.748Z,7.97
2023-02-16T23:34:16.139Z,7.99
2023-02-16T23:36:44.075Z,8.03
2023-02-16T23:39:16.298Z,7.96
2023-02-16T23:41:44.430Z,8.00
2023-02-16T23:44:14.043Z,8.00
2023-02-16T23:46:42.164Z,8.11
2023-02-16T23:49:10.811Z,8.28
2023-02-16T23:51:38.877Z,8.36
2023-02-16T23:54:09.159Z,8.27
2023-02-16T23:56:39.528Z,8.38
2023-02-16T23:59:07.490Z,8.41
